Terminal Aerodrome Forecast
Issued by NWS

Home | Current Version | Previous Version | Text Only | Print | Product List | Glossary On
Versions: 1 2 3 4 5 6 7 8 9 10 11 12 13 14 15 16 17 18
000
FTAK31 PAFA 241125
TAFAFA
TAF
PAFA 241125Z 2412/2518 VRB03KT 1/2SM SN FZFG BKN007 BKN015 OVC025
     FM241500 28010KT 1SM -SN BR SCT007 BKN015 OVC025
     FM241800 28010KT 2SM -SN BR SCT007 BKN015 OVC025
     FM250000 28014KT 4SM -SN BR BKN015 OVC025
     FM250300 28012KT 6SM -SN BR BKN015 OVC025=

USA.gov is the U.S. government's official web portal to all federal, state and local government web resources and services.